Albion, Rhode Island
Current Conditions -  °F | °C
As of 1:15 AM on Sunday 21 Dec 2014 (Local Time) from KSFZ Reporting Station
Overcast Overcast  
Wind Chill: 24°   Ceiling: 1800
Heat Index: 30°   Visibility: 3mi
Dew Point: 23°   Wind: 6mph
Humidity: 75%   Direction: 360°N
Pressure: 30.25"   Gusts: NA
Location:  41.95°N, 71.45°W
Report Text: KSFZ 210615Z 36005KT 3SM SCT012 OVC018 M01/M05 A3025 RMK AO1
Loading
Personal Weather Stations






























Interactive Weather Map New forecast layout! Learn more

10-Day Weather Forecast

Advertisements
Track Severe Weather on mobile